Bordeaux, South Carolina
Current Conditions -  °F | °C
As of 4:56 AM on Saturday 20 Dec 2014 (Local Time) from KGRD Reporting Station
Light Rain Light Rain  
Wind Chill: 44°   Ceiling: 6500
Heat Index: 44°   Visibility: 8mi
Dew Point: 42°   Wind: 0mph
Humidity: 93%   Direction: NA
Pressure: 30.16"   Gusts: NA
Location:  33.9231°N, 82.2423°W
Report Text: KGRD 200956Z AUTO 00000KT 8SM -RA OVC065 07/06 A3016 RMK AO2 SLP212 P0002 T00670056
Loading
Personal Weather Stations






























Interactive Weather Map New forecast layout! Learn more

10-Day Weather Forecast

Advertisements
Track Severe Weather on mobile